KGEG/GEG METAR and TAF weather

Enter ICAO airport designator
Station Type Date Time Source
KGEG METAR 2019/07/17 18:53 UTC NOAA

KGEG 171853Z 21016KT 10SM SCT055 OVC100 19/08 A2989 RMK AO2 SLP110 T01890083


Station Type Date Time Source
KGEG Decoded METAR 2019/07/17 18:53 UTC NOAA

SPOKANE INTERNATIONAL AIRPORT , WA, United States (KGEG) 47-37N 117-32W 735M
Jul 17, 2019 - 02:53 PM EDT / 2019.07.17 1853 UTC
Wind: from the SSW (210 degrees) at 18 MPH (16 KT):0
Visibility: 10 mile(s):0
Sky conditions: overcast
Temperature: 66.0 F (18.9 C)
Dew Point: 46.9 F (8.3 C)
Relative Humidity: 50%
Pressure (altimeter): 29.89 in. Hg (1012 hPa)
ob: KGEG 171853Z 21016KT 10SM SCT055 OVC100 19/08 A2989 RMK AO2 SLP110 T01890083
cycle: 19

Station Type Date Time Source
KGEG TAF 2019/07/17 18:33 UTC NOAA

TAF KGEG 171730Z 1718/1818 23016G27KT P6SM SCT060 BKN090 OVC150
FM180300 22015G22KT P6SM FEW150 BKN200
FM181200 21012KT P6SM SCT250

Example: see airport list